Nearby METAR Reports

 

KSJC - San Jose, California, USA
Distance from station: NE 14km
Updated: 06/05/2021 14:53
Few Clouds
Few Clouds
 Wind from N
Wind: N 9 km/h
Temperature: 11°C
Dew Point: 9°C
Humidity: 88%
Barometer: 1016.6 hPa
Clouds: Few Clouds
Visibility: 14 km
Cloud details: Few Clouds 213 m
2021/05/06 12:53 KSJC 061253Z 35005KT 9SM FEW007 11/09 A3002 RMK AO2 SLP166 T01110089
KNUQ - Moffett Nas/Mtn, California, USA
Distance from station: N 14km
Updated: 14/04/2021 00:40
NOT Current

 
2021/04/13 22:40 KNUQ 132240Z AUTO RMK AO2 PNO PWINO TSNO
 
KPAO - Palo Alto, California, USA
Distance from station: NNW 23km
Updated: 06/05/2021 03:47
NOT Current
Clear
Clear
 Wind from N
Wind: N 33 km/h, Gust: 46 km/h
Temperature: 14°C
Dew Point: 12°C
Humidity: 88%
Barometer: 1012.5 hPa
Clouds: Clear
Visibility: 16 km
2021/05/06 01:47 KPAO 060147Z 35018G25KT 10SM SKC 14/12 A2990
KRHV - San Jose/Reid, California, USA
Distance from station: ENE 19km
Updated: 06/05/2021 06:55
NOT Current
Clear
Clear
 Wind from NW
Wind: NW 11 km/h
Temperature: 14°C
Dew Point: 9°C
Humidity: 72%
Barometer: 1016.3 hPa
Clouds: Clear
Visibility: 16 km
2021/05/06 04:55 KRHV 060455Z 31006KT 10SM SKC 14/09 A3001 RMK LAST
 
KOAK - Oakland, California, USA
Distance from station: NNW 50km
Updated: 06/05/2021 14:53
Mostly cloudy
Mostly cloudy
 Wind from WNW
Wind: WNW 15 km/h
Temperature: 10°C
Wind Chill: 8°C
Dew Point: 8°C
Humidity: 88%
Barometer: 1017.3 hPa
Clouds: Mostly cloudy
Visibility: 16 km
Cloud details: Mostly cloudy 305 m
2021/05/06 12:53 KOAK 061253Z 30008KT 10SM BKN010 10/08 A3004 RMK AO2 SLP170 T01000078
KSQL - San Carlos Airpo, California, USA
Distance from station: NW 34km
Updated: 06/05/2021 15:15
Few Clouds
Few Clouds
 Wind from WNW
Wind: WNW 11 km/h
Temperature: 10°C
Wind Chill: 8°C
Dew Point: 7°C
Humidity: 82%
Barometer: 1017.3 hPa
Clouds: Few Clouds
Visibility: 16 km
Cloud details: Few Clouds 305 m
2021/05/06 13:15 KSQL 061315Z AUTO 30006KT 10SM FEW010 10/07 A3004 RMK AO2
 
KSFO - San Francisco, California, USA
Distance from station: NW 49km
Updated: 06/05/2021 14:56
Few Clouds
Few Clouds
 Wind from WNW
Wind: WNW 20 km/h
Temperature: 10°C
Wind Chill: 7°C
Dew Point: 7°C
Humidity: 82%
Barometer: 1016.9 hPa
Clouds: Few Clouds
Visibility: 16 km
Cloud details: Few Clouds 274 m
2021/05/06 12:56 KSFO 061256Z 30011KT 10SM FEW009 10/07 A3003 RMK AO2 SLP168 T01000072 $
KE16 - San Martin, California, USA
Distance from station: ESE 43km
Updated: 06/05/2021 15:15
Overcast
Overcast
 Wind from SSE
Wind: SSE 9 km/h
Temperature: 10°C
Wind Chill: 9°C
Dew Point: 8°C
Humidity: 88%
Barometer: 1017.6 hPa
Clouds: Overcast
Visibility: 16 km
Cloud details: Overcast 244 m
2021/05/06 13:15 KE16 061315Z AUTO 15005KT 10SM OVC008 10/08 A3005 RMK AO2 PWINO PNO
 
KWVI - Watsonville, California, USA
Distance from station: SSE 44km
Updated: 06/05/2021 15:12
Mist, Overcast
Mist, Overcast
 Wind from WNW
Wind: WNW 6 km/h
Temperature: 10°C
Dew Point: 9°C
Humidity: 94%
Barometer: 1017.3 hPa
Summary: Mist
Clouds: Overcast
Visibility: 2 km
Cloud details: Overcast 61 m
2021/05/06 13:12 KWVI 061312Z AUTO 29003KT 1 1/4SM BR OVC002 10/09 A3004 RMK AO2 T01000094
KHAF - Half Moon Bay, California, USA
Distance from station: WNW 50km
Updated: 06/05/2021 15:15
Overcast
Overcast
 Wind from NW
Wind: NW 11 km/h
Temperature: 9°C
Wind Chill: 7°C
Dew Point: 8°C
Humidity: 94%
Barometer: 1017.9 hPa
Clouds: Overcast
Visibility: 11 km
Cloud details: Overcast 244 m
2021/05/06 13:15 KHAF 061315Z AUTO 32006KT 7SM OVC008 09/08 A3006 RMK AO2
 
KHWD - Hayward, California, USA
Distance from station: N 44km
Updated: 06/05/2021 14:54
Overcast
Overcast
 Wind from W
Wind: W 9 km/h
Temperature: 11°C
Dew Point: 8°C
Humidity: 82%
Barometer: 1016.9 hPa
Clouds: Overcast
Visibility: 16 km
Cloud details: Overcast 335 m
2021/05/06 12:54 KHWD 061254Z 28005KT 10SM OVC011 11/08 A3003 RMK AO2 SLP177 T01110083
KLVK - Livermore, California, USA
Distance from station: NNE 51km
Updated: 06/05/2021 14:53
Clear
Clear
 Wind from WNW
Wind: WNW 15 km/h
Temperature: 10°C
Wind Chill: 8°C
Dew Point: 8°C
Humidity: 88%
Barometer: 1015.9 hPa
Clouds: Clear
Visibility: 16 km
2021/05/06 12:53 KLVK 061253Z AUTO 30008KT 10SM CLR 10/08 A3000 RMK AO2 SLP156 T01000078